Time;durP1;ratioP1;P1;durP2;ratioP2;P2;SDS_P1;SDS_P2;PMS_P1;PMS_P2;Temp;Humidity;BMP_temperature;BMP_pressure;BME280_temperature;BME280_humidity;BME280_pressure;Samples;Min_cycle;Max_cycle;Signal;HPM_P1;HPM_P2
2022/06/08 00:00:42;;;;;;;16.63;10.95;;;;;;;21.02;49.99;101107.50;5025233;28;20036;-72
2022/06/08 00:03:13;;;;;;;13.88;9.77;;;;;;;21.37;49.00;101110.72;5025175;28;20662;-71
2022/06/08 00:05:38;;;;;;;12.80;9.48;;;;;;;21.38;48.99;101108.78;5027849;28;20116;-71
2022/06/08 00:08:04;;;;;;;16.13;9.95;;;;;;;21.43;48.89;101101.34;5027802;28;20368;-72
2022/06/08 00:10:30;;;;;;;15.65;11.52;;;;;;;21.37;49.23;101102.50;5028829;28;20032;-72
2022/06/08 00:12:55;;;;;;;12.27;10.45;;;;;;;21.54;48.83;101100.13;5027951;28;20095;-71
2022/06/08 00:15:21;;;;;;;15.48;10.75;;;;;;;21.48;48.70;101095.81;5019854;28;20117;-72
2022/06/08 00:17:46;;;;;;;14.52;10.10;;;;;;;21.29;49.29;101103.13;5022675;28;20520;-71
2022/06/08 00:20:12;;;;;;;15.98;10.48;;;;;;;21.45;49.16;101096.41;5006840;28;20048;-71
2022/06/08 00:22:38;;;;;;;17.50;10.93;;;;;;;21.46;49.12;101092.56;5024686;28;20088;-71
2022/06/08 00:25:05;;;;;;;15.30;9.32;;;;;;;21.38;49.18;101103.31;5023391;28;20068;-66
2022/06/08 00:27:31;;;;;;;13.98;10.48;;;;;;;21.23;49.25;101085.16;5027167;28;20045;-66
2022/06/08 00:29:56;;;;;;;19.77;10.40;;;;;;;21.40;49.38;101081.97;5022532;28;20034;-67
2022/06/08 00:32:21;;;;;;;16.25;10.55;;;;;;;21.47;49.34;101086.00;5026590;28;20049;-67
2022/06/08 00:34:47;;;;;;;17.63;11.02;;;;;;;21.29;50.21;101077.72;5026996;28;20033;-67
2022/06/08 00:37:12;;;;;;;13.73;11.55;;;;;;;21.33;50.12;101073.28;5027577;28;20519;-66
2022/06/08 00:39:38;;;;;;;17.13;11.85;;;;;;;21.21;50.04;101070.19;5022295;28;20048;-65
2022/06/08 00:42:06;;;;;;;15.82;10.20;;;;;;;20.99;51.16;101065.19;5025349;28;20170;-65
2022/06/08 00:44:44;;;;;;;18.40;11.35;;;;;;;21.29;50.09;101074.97;5026778;28;20393;-64
2022/06/08 00:47:15;;;;;;;14.75;10.32;;;;;;;21.53;49.09;101065.69;5026821;28;20610;-66
2022/06/08 00:49:50;;;;;;;15.20;10.57;;;;;;;21.46;49.31;101053.47;5027700;28;20537;-72
2022/06/08 00:52:16;;;;;;;19.40;11.85;;;;;;;21.33;49.87;101062.34;5026426;28;20377;-72
2022/06/08 00:54:50;;;;;;;19.33;11.27;;;;;;;21.46;49.78;101057.00;5021893;28;20037;-72
2022/06/08 00:57:20;;;;;;;14.90;10.93;;;;;;;21.30;49.61;101061.03;5023213;28;20052;-73
2022/06/08 00:59:52;;;;;;;;;;;;;;;21.34;49.63;101053.06;5023521;28;20072;-71
2022/06/08 01:02:18;;;;;;;15.00;10.95;;;;;;;21.37;49.84;101050.56;5026814;28;19917;-71
2022/06/08 01:04:43;;;;;;;19.38;11.05;;;;;;;21.54;49.13;101053.63;5023204;28;20022;-71
2022/06/08 01:07:16;;;;;;;16.75;11.40;;;;;;;21.42;49.58;101044.22;5007355;28;20091;-71
2022/06/08 01:09:45;;;;;;;18.83;11.23;;;;;;;21.49;49.51;101042.75;5019725;28;20030;-72
2022/06/08 01:12:14;;;;;;;19.77;12.07;;;;;;;21.32;49.87;101044.34;5024788;28;20337;-72
2022/06/08 01:14:40;;;;;;;20.63;10.88;;;;;;;21.52;49.39;101046.84;5026701;28;20037;-72
2022/06/08 01:17:09;;;;;;;23.73;13.00;;;;;;;21.39;49.82;101047.53;5009706;28;20065;-72
2022/06/08 01:19:37;;;;;;;15.48;11.13;;;;;;;21.51;49.24;101043.28;5026811;28;20038;-72
2022/06/08 01:22:05;;;;;;;14.90;10.82;;;;;;;21.40;49.40;101038.22;5022521;28;20064;-72
2022/06/08 01:24:31;;;;;;;16.70;11.25;;;;;;;21.47;49.04;101031.28;5021112;28;20577;-71
2022/06/08 01:27:07;;;;;;;14.80;11.32;;;;;;;21.74;48.39;101033.41;5024149;28;20249;-72
2022/06/08 01:30:02;;;;;;;17.88;11.90;;;;;;;21.77;48.26;101032.81;5024892;28;20099;-72
2022/06/08 01:32:33;;;;;;;19.20;12.18;;;;;;;21.72;48.84;101033.69;5004072;28;20046;-71
2022/06/08 01:35:04;;;;;;;15.60;11.63;;;;;;;21.79;48.13;101031.44;5003644;28;20038;-72
2022/06/08 01:37:57;;;;;;;15.10;11.10;;;;;;;21.88;47.88;101020.66;5003476;28;20084;-73
2022/06/08 01:40:40;;;;;;;16.27;11.93;;;;;;;22.92;44.98;101013.72;5000852;28;20129;-71
2022/06/08 01:43:06;;;;;;;20.65;12.15;;;;;;;23.08;44.59;101000.53;5000153;28;20576;-73
2022/06/08 01:46:02;;;;;;;18.75;12.70;;;;;;;23.01;45.37;100998.22;4987245;28;20045;-72
2022/06/08 01:48:52;;;;;;;19.23;11.63;;;;;;;22.88;45.39;101003.69;4998490;28;20030;-71
2022/06/08 01:51:26;;;;;;;22.92;12.23;;;;;;;22.22;47.15;101002.06;5002818;28;20034;-71
2022/06/08 01:54:17;;;;;;;17.02;11.27;;;;;;;21.57;49.32;100995.63;5004093;28;20394;-71
2022/06/08 01:56:57;;;;;;;16.25;11.93;;;;;;;21.60;49.02;100997.75;4999411;28;21652;-71
2022/06/08 01:59:26;;;;;;;15.52;12.00;;;;;;;21.40;49.92;100994.47;5000212;28;20142;-71
2022/06/08 02:02:10;;;;;;;24.77;13.57;;;;;;;21.40;49.98;100989.84;5004049;28;20057;-72
2022/06/08 02:04:52;;;;;;;17.67;12.13;;;;;;;21.66;49.80;100984.84;5002167;28;20046;-73
2022/06/08 02:07:34;;;;;;;21.95;13.73;;;;;;;22.56;46.82;100975.16;4987947;28;20442;-71
2022/06/08 02:10:06;;;;;;;19.42;14.25;;;;;;;22.73;46.53;100976.56;5002351;28;20714;-72
2022/06/08 02:12:34;;;;;;;25.85;14.13;;;;;;;22.83;46.37;100966.22;5026701;28;20076;-70
2022/06/08 02:15:10;;;;;;;18.85;13.60;;;;;;;22.36;47.55;100967.34;5026331;28;20551;-72
2022/06/08 02:18:04;;;;;;;22.40;13.82;;;;;;;21.58;49.49;100953.47;5026119;28;21379;-73
2022/06/08 02:20:32;;;;;;;20.40;13.95;;;;;;;22.58;46.81;100958.50;5024370;28;20038;-72
2022/06/08 02:23:30;;;;;;;18.95;14.02;;;;;;;22.75;46.26;100957.88;5030191;28;20129;-71
2022/06/08 02:26:05;;;;;;;18.20;13.50;;;;;;;22.87;45.92;100950.81;5003150;28;20077;-72
2022/06/08 02:28:36;;;;;;;20.23;14.27;;;;;;;22.88;46.37;100954.38;5006521;28;20503;-71
2022/06/08 02:31:12;;;;;;;17.73;13.18;;;;;;;23.02;46.39;100958.72;5009521;28;20129;-72
2022/06/08 02:36:30;;;;;;;18.88;13.60;;;;;;;22.05;49.01;100952.53;5010291;28;20529;-71
2022/06/08 02:39:05;;;;;;;17.75;14.43;;;;;;;22.89;46.64;100947.75;5009933;28;20036;-71
2022/06/08 02:41:33;;;;;;;18.35;13.70;;;;;;;22.24;48.55;100947.00;5007786;28;20545;-72
2022/06/08 02:44:04;;;;;;;24.25;14.88;;;;;;;21.60;50.62;100945.00;5003683;28;20058;-71
2022/06/08 02:46:46;;;;;;;18.75;13.80;;;;;;;21.53;51.00;100939.06;5008483;28;20034;-71
2022/06/08 02:49:11;;;;;;;23.10;13.88;;;;;;;21.66;50.41;100939.13;5009824;28;20041;-71
2022/06/08 02:51:41;;;;;;;23.70;14.65;;;;;;;21.57;50.68;100932.72;5009382;28;20453;-71
2022/06/08 02:54:13;;;;;;;20.15;13.95;;;;;;;21.68;50.50;100941.56;5009502;28;20342;-72
2022/06/08 02:56:44;;;;;;;19.73;13.85;;;;;;;21.68;51.01;100927.88;5002951;28;20034;-71
2022/06/08 02:59:14;;;;;;;20.00;14.05;;;;;;;21.92;50.27;100923.16;5005389;28;20042;-71
2022/06/08 03:01:46;;;;;;;23.63;15.82;;;;;;;21.87;50.61;100914.22;5005115;28;20048;-71
2022/06/08 03:04:26;;;;;;;19.13;13.80;;;;;;;21.40;52.24;100907.00;5006317;28;20041;-70
2022/06/08 03:07:07;;;;;;;25.15;15.00;;;;;;;21.45;52.20;100905.00;5007365;28;20038;-71
2022/06/08 03:09:34;;;;;;;23.98;14.52;;;;;;;21.66;51.95;100909.03;5006092;28;20110;-72
2022/06/08 03:12:10;;;;;;;23.55;15.25;;;;;;;22.02;50.84;100898.38;5002769;28;20042;-71
2022/06/08 03:14:36;;;;;;;23.48;15.57;;;;;;;22.90;49.00;100900.84;5010010;28;20038;-71
2022/06/08 03:17:07;;;;;;;21.23;14.60;;;;;;;23.23;47.88;100893.31;5010177;28;20458;-71
2022/06/08 03:19:34;;;;;;;21.60;14.70;;;;;;;23.05;48.40;100917.00;5028804;28;20519;-72
2022/06/08 03:22:01;;;;;;;22.23;15.15;;;;;;;23.35;47.35;100908.13;5028184;28;20063;-66
2022/06/08 03:24:28;;;;;;;26.40;13.98;;;;;;;23.29;47.70;100906.59;5028382;28;20098;-66
2022/06/08 03:26:58;;;;;;;19.10;14.70;;;;;;;23.47;47.41;100902.91;5028104;28;20046;-65
2022/06/08 03:29:24;;;;;;;22.33;15.50;;;;;;;23.29;47.25;100898.34;5020908;28;20037;-65
2022/06/08 03:31:50;;;;;;;24.63;15.18;;;;;;;22.84;49.67;100901.28;5021066;28;20022;-66
2022/06/08 03:34:15;;;;;;;25.27;15.93;;;;;;;23.21;47.82;100884.59;5026586;28;20390;-66
2022/06/08 03:36:41;;;;;;;22.45;16.88;;;;;;;23.01;48.85;100885.00;5022371;28;20029;-65
2022/06/08 03:39:07;;;;;;;25.73;16.73;;;;;;;23.41;47.60;100895.09;4999815;28;20030;-68
2022/06/08 03:41:33;;;;;;;23.15;16.23;;;;;;;23.24;48.11;100895.75;5026499;28;20112;-64
2022/06/08 03:43:59;;;;;;;24.30;16.20;;;;;;;23.17;48.17;100891.81;5028519;28;20029;-68
2022/06/08 03:46:26;;;;;;;23.45;17.45;;;;;;;23.11;48.26;100891.09;5025859;28;20040;-66
2022/06/08 03:48:52;;;;;;;23.23;16.70;;;;;;;23.25;48.08;100888.34;5027340;28;20225;-65
2022/06/08 03:51:18;;;;;;;21.10;15.73;;;;;;;22.96;48.93;100893.34;5028190;28;20103;-65
2022/06/08 03:53:51;;;;;;;25.45;16.90;;;;;;;23.08;49.30;100888.97;5028723;28;20061;-65
2022/06/08 03:56:18;;;;;;;21.35;15.43;;;;;;;23.22;47.99;100897.97;5007402;28;20056;-67
2022/06/08 03:58:44;;;;;;;25.25;17.25;;;;;;;23.09;49.02;100892.53;5024656;28;20450;-66
2022/06/08 04:01:10;;;;;;;26.42;18.20;;;;;;;23.12;48.99;100894.63;5005769;28;20037;-65
2022/06/08 04:03:35;;;;;;;23.65;17.45;;;;;;;23.00;49.41;100892.41;5024875;28;20617;-65
2022/06/08 04:06:01;;;;;;;25.35;17.70;;;;;;;23.05;49.37;100888.78;5024080;28;20106;-65
2022/06/08 04:08:27;;;;;;;24.40;18.08;;;;;;;23.52;47.95;100897.34;5027627;28;20489;-65
2022/06/08 04:10:52;;;;;;;27.05;17.80;;;;;;;23.57;47.41;100884.63;5017268;28;20069;-66
2022/06/08 04:13:18;;;;;;;26.90;16.73;;;;;;;23.51;48.18;100895.69;5027640;28;20440;-65
2022/06/08 04:15:44;;;;;;;26.58;17.98;;;;;;;23.68;47.69;100894.22;5026897;28;20061;-66
2022/06/08 04:18:14;;;;;;;23.95;17.42;;;;;;;23.86;47.66;100888.53;5025840;28;20532;-66
2022/06/08 04:20:41;;;;;;;;;;;;;;;24.03;47.30;100885.97;5025628;28;20136;-66
2022/06/08 04:23:06;;;;;;;23.90;16.05;;;;;;;23.70;47.79;100891.97;5027469;28;20431;-67
2022/06/08 04:25:32;;;;;;;26.60;16.92;;;;;;;23.81;47.48;100891.41;5023499;28;20018;-72
2022/06/08 04:27:58;;;;;;;29.17;17.35;;;;;;;23.90;47.80;100892.28;5023998;28;20201;-71
2022/06/08 04:30:24;;;;;;;26.40;16.15;;;;;;;24.05;47.08;100891.13;5026642;28;20063;-72
2022/06/08 04:32:49;;;;;;;24.23;16.65;;;;;;;23.95;48.06;100894.91;5023448;28;20107;-73
2022/06/08 04:35:17;;;;;;;23.00;16.02;;;;;;;24.28;46.63;100898.22;5021626;28;20037;-72
2022/06/08 04:37:42;;;;;;;21.70;15.40;;;;;;;24.50;46.89;100892.69;5026450;28;20072;-71
2022/06/08 04:40:11;;;;;;;22.58;15.88;;;;;;;24.76;45.65;100892.81;5020665;28;20049;-74
2022/06/08 04:42:37;;;;;;;21.30;15.38;;;;;;;24.59;46.08;100899.00;5016085;28;20037;-73
2022/06/08 04:45:04;;;;;;;25.58;15.07;;;;;;;24.35;46.78;100895.84;5021930;28;20052;-71
2022/06/08 04:47:30;;;;;;;21.42;15.10;;;;;;;24.60;46.55;100892.41;5022397;28;20044;-71
2022/06/08 04:49:55;;;;;;;19.48;15.10;;;;;;;24.74;46.59;100903.31;5026166;28;20034;-71
2022/06/08 04:52:21;;;;;;;18.95;14.55;;;;;;;24.61;46.81;100899.50;5021513;28;20559;-71
2022/06/08 04:54:53;;;;;;;26.35;15.77;;;;;;;24.20;47.67;100896.22;5026378;28;20454;-71
2022/06/08 04:57:18;;;;;;;19.58;14.50;;;;;;;23.98;48.56;100898.97;5008382;28;20037;-74
2022/06/08 04:59:44;;;;;;;28.25;15.30;;;;;;;23.89;48.65;100898.09;5016601;28;20062;-70
2022/06/08 05:02:10;;;;;;;25.50;15.60;;;;;;;24.28;47.52;100907.28;5027154;28;20025;-72
2022/06/08 05:04:35;;;;;;;22.05;15.93;;;;;;;23.73;48.39;100905.88;5028151;28;20021;-71
2022/06/08 05:07:01;;;;;;;21.33;15.45;;;;;;;24.42;47.04;100898.94;5020539;28;20045;-71
2022/06/08 05:09:27;;;;;;;24.08;16.58;;;;;;;23.22;50.40;100891.69;5026292;28;20041;-71
2022/06/08 05:11:53;;;;;;;21.90;15.32;;;;;;;22.70;51.99;100904.03;5025372;28;20037;-71
2022/06/08 05:14:18;;;;;;;25.45;17.23;;;;;;;22.78;52.25;100897.81;5026117;28;20500;-71
2022/06/08 05:16:44;;;;;;;22.02;16.13;;;;;;;22.97;51.96;100895.78;5022370;28;20029;-70
2022/06/08 05:19:10;;;;;;;25.05;17.55;;;;;;;22.88;52.47;100897.59;5023095;28;20040;-72
2022/06/08 05:21:36;;;;;;;22.17;16.98;;;;;;;23.08;51.98;100888.13;5022589;28;20040;-67
2022/06/08 05:24:03;;;;;;;26.55;17.38;;;;;;;22.49;53.62;100883.56;5023254;28;20029;-67
2022/06/08 05:26:28;;;;;;;29.42;18.77;;;;;;;23.01;52.36;100882.28;5024440;28;20053;-67
2022/06/08 05:28:54;;;;;;;24.52;18.48;;;;;;;22.73;53.39;100886.97;5025542;28;20436;-67
2022/06/08 05:31:19;;;;;;;31.05;20.65;;;;;;;22.68;53.76;100882.38;5006573;28;20394;-67
2022/06/08 05:33:45;;;;;;;24.40;18.45;;;;;;;23.34;52.04;100870.03;5025084;28;20033;-66
2022/06/08 05:36:10;;;;;;;27.92;19.08;;;;;;;23.65;51.29;100872.88;5023493;28;20524;-67
2022/06/08 05:38:36;;;;;;;27.00;20.67;;;;;;;23.50;51.93;100868.56;5025895;28;20041;-67
2022/06/08 05:41:02;;;;;;;27.85;19.98;;;;;;;23.51;51.58;100872.94;5023426;28;20049;-66
2022/06/08 05:43:28;;;;;;;28.10;19.88;;;;;;;23.02;53.34;100862.78;5024213;28;20045;-67
2022/06/08 05:45:53;;;;;;;28.80;21.08;;;;;;;23.17;52.88;100854.22;5005245;28;20096;-66
2022/06/08 05:48:19;;;;;;;31.17;20.73;;;;;;;23.38;52.14;100851.84;5018114;28;20086;-66
2022/06/08 05:50:45;;;;;;;27.38;20.77;;;;;;;23.62;52.00;100852.38;5020273;28;20046;-65
2022/06/08 05:53:12;;;;;;;27.08;20.23;;;;;;;23.51;52.22;100854.53;5027036;28;20039;-67
2022/06/08 05:55:37;;;;;;;28.58;21.83;;;;;;;23.88;50.94;100842.38;5024439;28;20183;-66
2022/06/08 05:58:03;;;;;;;28.23;20.10;;;;;;;23.86;51.09;100843.81;5029501;28;20029;-67
2022/06/08 06:00:36;;;;;;;25.30;19.42;;;;;;;23.43;51.88;100847.06;5028123;28;20140;-69
2022/06/08 06:03:03;;;;;;;26.58;19.40;;;;;;;24.04;50.73;100842.81;5027249;28;20050;-74
2022/06/08 06:05:31;;;;;;;25.25;18.38;;;;;;;23.90;51.01;100844.81;5025010;28;20044;-72
2022/06/08 06:07:57;;;;;;;28.90;19.15;;;;;;;24.17;50.24;100840.00;5028166;28;20567;-74
2022/06/08 06:10:25;;;;;;;25.65;18.50;;;;;;;23.96;50.53;100836.13;5011782;28;20030;-72
2022/06/08 06:12:53;;;;;;;24.50;17.85;;;;;;;23.63;51.48;100833.97;5025834;28;20517;-71
2022/06/08 06:15:19;;;;;;;23.65;17.30;;;;;;;23.95;50.40;100829.03;5021693;28;20030;-72
2022/06/08 06:17:44;;;;;;;22.40;16.38;;;;;;;23.65;50.70;100829.78;5028229;28;20561;-71
2022/06/08 06:20:11;;;;;;;22.00;16.40;;;;;;;24.20;49.14;100836.63;5022652;28;20029;-73
2022/06/08 06:22:37;;;;;;;21.55;16.02;;;;;;;24.54;48.88;100837.88;5030339;28;20033;-72
2022/06/08 06:25:04;;;;;;;20.83;15.50;;;;;;;24.43;49.00;100837.38;5029195;28;20083;-72
2022/06/08 06:27:31;;;;;;;21.55;15.48;;;;;;;24.93;47.67;100838.69;5026488;28;20053;-71
2022/06/08 06:29:56;;;;;;;21.75;15.52;;;;;;;24.98;47.75;100834.97;5025091;28;20121;-72
2022/06/08 06:32:28;;;;;;;19.42;14.82;;;;;;;25.00;47.77;100832.72;5021114;28;20052;-73
2022/06/08 06:34:55;;;;;;;21.38;14.20;;;;;;;25.07;47.38;100822.03;5033565;28;20045;-71
2022/06/08 06:37:20;;;;;;;19.88;14.73;;;;;;;24.33;48.86;100823.94;5032858;28;20544;-73
2022/06/08 06:39:46;;;;;;;18.27;14.85;;;;;;;24.37;48.92;100824.91;5032878;28;20128;-72
2022/06/08 06:42:17;;;;;;;17.95;13.73;;;;;;;24.44;49.05;100822.50;5032717;28;20111;-72
2022/06/08 06:44:43;;;;;;;21.45;14.18;;;;;;;24.55;48.54;100825.78;5032656;28;20497;-71
2022/06/08 06:47:08;;;;;;;18.38;13.82;;;;;;;24.79;48.39;100820.69;5032864;28;20168;-71
2022/06/08 06:49:34;;;;;;;23.05;14.25;;;;;;;24.57;48.75;100818.81;5020369;28;20025;-75
2022/06/08 06:51:59;;;;;;;18.42;13.05;;;;;;;24.56;49.24;100810.91;5030330;28;20119;-72
2022/06/08 06:54:25;;;;;;;20.88;13.55;;;;;;;24.74;48.16;100813.41;5030510;28;20037;-75
2022/06/08 06:56:50;;;;;;;18.67;13.27;;;;;;;24.93;47.91;100804.88;5032594;28;20571;-72
2022/06/08 06:59:16;;;;;;;17.25;13.27;;;;;;;25.36;47.34;100804.88;5031941;28;20036;-71
2022/06/08 07:01:41;;;;;;;16.98;12.98;;;;;;;24.88;48.29;100800.34;5031908;28;20087;-71
2022/06/08 07:04:07;;;;;;;16.23;12.65;;;;;;;24.79;48.71;100802.25;5030799;28;20053;-73
2022/06/08 07:06:33;;;;;;;16.23;12.25;;;;;;;25.26;47.47;100804.09;5031448;28;20042;-72
2022/06/08 07:09:01;;;;;;;17.60;11.18;;;;;;;25.67;46.31;100800.06;5025627;28;20041;-72
2022/06/08 07:11:35;;;;;;;20.05;12.52;;;;;;;24.81;47.91;100799.19;5016712;28;20045;-72
2022/06/08 07:14:04;;;;;;;17.58;11.93;;;;;;;25.41;46.98;100799.25;5030714;28;20029;-74
2022/06/08 07:16:31;;;;;;;14.55;12.65;;;;;;;25.10;47.17;100794.69;5032307;28;20037;-71
2022/06/08 07:18:56;;;;;;;15.13;10.65;;;;;;;25.98;45.18;100793.16;5032311;28;20072;-73
2022/06/08 07:21:21;;;;;;;12.50;10.80;;;;;;;25.70;46.12;100793.88;5031894;28;20045;-72
2022/06/08 07:23:47;;;;;;;17.88;11.45;;;;;;;26.08;44.94;100781.81;5031688;28;20034;-71
2022/06/08 07:26:12;;;;;;;14.50;11.50;;;;;;;25.61;46.16;100782.09;5025418;28;20105;-71
2022/06/08 07:28:39;;;;;;;13.93;11.70;;;;;;;25.95;45.57;100776.47;5032171;28;20036;-71
2022/06/08 07:31:04;;;;;;;18.65;11.40;;;;;;;26.02;45.16;100780.34;5032124;28;20529;-73
2022/06/08 07:33:30;;;;;;;12.70;10.38;;;;;;;25.26;46.32;100779.34;5029705;28;20036;-72
2022/06/08 07:35:57;;;;;;;15.00;11.23;;;;;;;25.52;45.90;100770.25;5025719;28;20493;-72
2022/06/08 07:38:23;;;;;;;14.27;11.05;;;;;;;25.80;45.67;100766.81;5019669;28;20038;-71
2022/06/08 07:40:48;;;;;;;14.05;9.68;;;;;;;25.87;45.22;100769.88;5019986;28;20508;-71
2022/06/08 07:43:14;;;;;;;14.88;10.40;;;;;;;26.05;44.62;100771.44;5025975;28;20072;-74
2022/06/08 07:45:40;;;;;;;17.73;11.10;;;;;;;25.54;45.80;100766.06;5031721;28;20026;-74
2022/06/08 07:50:50;;;;;;;17.60;10.52;;;;;;;25.56;45.61;100755.53;5031621;28;20454;-72
2022/06/08 07:53:15;;;;;;;12.50;10.15;;;;;;;26.43;43.81;100763.19;5032061;28;20034;-76
2022/06/08 07:55:42;;;;;;;14.23;9.02;;;;;;;26.99;43.36;100752.78;5032721;28;20056;-75
2022/06/08 07:58:08;;;;;;;14.57;10.82;;;;;;;27.28;42.36;100749.94;5031910;28;20044;-74
2022/06/08 08:00:34;;;;;;;10.60;8.20;;;;;;;26.13;44.01;100750.53;5031435;28;20525;-74
2022/06/08 08:02:59;;;;;;;8.30;7.50;;;;;;;27.15;42.20;100738.03;5025241;28;20473;-77
2022/06/08 08:05:26;;;;;;;14.35;9.65;;;;;;;27.67;41.32;100741.94;5031449;28;20041;-73
2022/06/08 08:07:52;;;;;;;9.23;8.25;;;;;;;27.13;42.13;100737.56;5031623;28;20489;-74
2022/06/08 08:10:21;;;;;;;8.35;6.95;;;;;;;27.91;41.30;100732.84;5031784;28;20044;-73
2022/06/08 08:12:46;;;;;;;8.02;6.40;;;;;;;27.81;40.57;100733.34;5030561;28;20056;-74
2022/06/08 08:15:13;;;;;;;11.05;6.20;;;;;;;27.42;40.72;100731.16;5031491;28;20034;-73
2022/06/08 08:17:39;;;;;;;9.90;5.35;;;;;;;28.02;39.44;100727.72;5030760;28;20069;-74
2022/06/08 08:20:05;;;;;;;8.25;4.68;;;;;;;27.65;40.27;100730.44;5030011;28;20079;-70
2022/06/08 08:22:31;;;;;;;8.15;5.82;;;;;;;28.02;40.15;100734.06;5030446;28;20099;-71
2022/06/08 08:24:56;;;;;;;6.50;4.30;;;;;;;28.06;40.38;100725.91;5029595;28;20053;-71
2022/06/08 08:27:22;;;;;;;8.18;3.65;;;;;;;28.26;38.15;100728.56;5029730;28;20034;-72
2022/06/08 08:29:48;;;;;;;6.03;3.42;;;;;;;28.45;38.47;100726.00;5028787;28;20048;-71
2022/06/08 08:32:13;;;;;;;5.63;3.65;;;;;;;26.59;41.77;100730.34;5030563;28;20508;-73
2022/06/08 08:34:38;;;;;;;6.53;4.10;;;;;;;27.41;39.88;100719.31;5013672;28;20515;-73
2022/06/08 08:37:04;;;;;;;3.72;3.25;;;;;;;27.43;40.19;100721.72;5030674;28;20056;-74
2022/06/08 08:39:30;;;;;;;7.00;3.67;;;;;;;28.10;39.08;100721.28;5030218;28;20064;-73
2022/06/08 08:44:47;;;;;;;5.13;3.70;;;;;;;28.02;38.82;100709.19;5029566;28;20044;-72
2022/06/08 08:47:18;;;;;;;3.25;2.95;;;;;;;27.26;40.98;100705.31;5026990;28;20087;-73
2022/06/08 08:49:52;;;;;;;3.10;2.78;;;;;;;28.16;38.54;100708.84;5028053;28;20075;-71
2022/06/08 08:52:20;;;;;;;4.75;2.80;;;;;;;28.47;38.63;100707.09;5025768;28;20038;-73
2022/06/08 08:55:19;;;;;;;4.43;3.10;;;;;;;27.29;40.37;100713.72;5026725;28;20136;-74
2022/06/08 08:58:00;;;;;;;4.43;2.90;;;;;;;28.31;38.96;100713.69;4947595;28;20126;-73
2022/06/08 09:00:41;;;;;;;4.07;2.97;;;;;;;27.69;40.18;100709.22;4948712;28;20061;-72
2022/06/08 09:03:40;;;;;;;5.47;3.38;;;;;;;27.32;40.36;100703.97;4947737;28;20050;-74
2022/06/08 09:06:14;;;;;;;7.25;3.22;;;;;;;27.32;40.34;100703.97;4949203;28;20468;-71
2022/06/08 09:08:46;;;;;;;8.60;2.88;;;;;;;25.73;43.31;100705.94;4949481;28;20035;-73
2022/06/08 09:11:17;;;;;;;5.60;3.05;;;;;;;27.42;40.66;100698.03;4949139;28;20043;-72
2022/06/08 09:13:45;;;;;;;;;;;;;;;27.25;40.56;100695.41;4950755;29;20038;-73
2022/06/08 09:16:37;;;;;;;3.15;2.63;;;;;;;28.04;39.74;100695.84;4949995;28;19925;-72
2022/06/08 09:19:20;;;;;;;3.80;3.05;;;;;;;27.26;42.03;100692.28;4945304;29;20581;-72
2022/06/08 09:21:47;;;;;;;5.38;3.70;;;;;;;27.18;41.21;100684.13;4947129;28;20039;-71
2022/06/08 09:24:28;;;;;;;4.30;3.58;;;;;;;27.02;41.72;100694.16;4948829;28;20124;-72
2022/06/08 09:26:57;;;;;;;5.97;3.55;;;;;;;27.47;41.40;100693.09;4949160;28;20054;-73
2022/06/08 09:29:26;;;;;;;6.32;4.30;;;;;;;27.77;41.05;100694.53;4949339;28;20051;-71
2022/06/08 09:31:52;;;;;;;7.65;5.43;;;;;;;27.98;40.07;100685.38;4954022;29;20027;-74
2022/06/08 09:34:27;;;;;;;8.98;4.38;;;;;;;29.07;38.79;100686.78;4982518;28;20037;-71
2022/06/08 09:37:29;;;;;;;6.55;4.32;;;;;;;27.88;39.26;100678.31;5033612;28;20552;-71
2022/06/08 09:39:58;;;;;;;12.77;4.43;;;;;;;28.25;39.40;100685.47;5021030;28;20482;-73
2022/06/08 09:42:37;;;;;;;9.05;4.72;;;;;;;28.07;39.32;100686.84;5027197;28;20541;-72
2022/06/08 09:45:25;;;;;;;7.40;4.55;;;;;;;28.39;39.88;100683.16;5027123;28;20045;-73
2022/06/08 09:53:47;;;;;;;48.88;8.82;;;;;;;27.89;40.48;100674.41;5033281;28;20185;-70
2022/06/08 09:56:27;;;;;;;8.80;4.30;;;;;;;27.53;41.29;100666.06;5032741;28;20513;-69
2022/06/08 09:59:23;;;;;;;10.02;5.10;;;;;;;27.10;41.76;100672.03;5033516;28;20089;-70
2022/06/08 10:02:08;;;;;;;8.15;4.70;;;;;;;27.29;42.10;100672.31;5033086;28;20055;-69
2022/06/08 10:04:33;;;;;;;9.23;4.40;;;;;;;27.71;41.47;100660.00;5031192;28;20398;-69
2022/06/08 10:07:10;;;;;;;7.35;3.85;;;;;;;27.89;40.92;100662.56;5032685;28;20038;-69
2022/06/08 10:09:58;;;;;;;8.80;3.40;;;;;;;28.48;40.06;100656.16;5028517;28;20402;-69
2022/06/08 10:12:32;;;;;;;6.20;3.60;;;;;;;27.55;41.11;100655.50;5027453;28;20040;-68
2022/06/08 10:15:24;;;;;;;9.05;4.22;;;;;;;28.68;39.26;100648.88;5032779;28;20061;-71
2022/06/08 10:18:06;;;;;;;5.95;3.65;;;;;;;27.96;40.37;100652.56;5026663;28;20086;-71
2022/06/08 10:20:40;;;;;;;8.32;3.88;;;;;;;28.17;40.28;100650.47;5033016;28;20037;-71
2022/06/08 10:23:34;;;;;;;7.28;3.60;;;;;;;28.87;38.86;100643.53;5015123;28;20159;-70
2022/06/08 10:26:22;;;;;;;5.95;3.17;;;;;;;28.27;39.29;100636.19;5021689;28;20131;-72
2022/06/08 10:28:53;;;;;;;9.73;2.92;;;;;;;27.95;40.52;100637.13;5025380;28;20033;-73
2022/06/08 10:31:21;;;;;;;;;;;;;;;28.70;38.70;100637.50;5030872;28;20034;-72
2022/06/08 10:34:03;;;;;;;3.45;1.98;;;;;;;27.99;39.99;100626.22;5022045;28;19928;-72
2022/06/08 10:36:33;;;;;;;4.53;2.47;;;;;;;28.32;39.32;100641.47;5021592;28;20034;-72
2022/06/08 10:39:01;;;;;;;3.97;2.10;;;;;;;26.14;45.96;100661.25;5023965;28;20030;-65
2022/06/08 10:44:35;;;;;;;9.35;1.98;;;;;;;21.14;62.62;100690.63;5032641;28;20052;-74
2022/06/08 10:47:12;;;;;;;8.40;2.38;;;;;;;21.75;61.97;100693.06;5029749;28;20029;-73
2022/06/08 10:49:38;;;;;;;12.02;2.97;;;;;;;22.72;60.60;100682.59;5031322;28;20045;-76
2022/06/08 10:52:13;;;;;;;10.80;2.97;;;;;;;22.85;59.51;100679.00;5032404;28;20065;-75
2022/06/08 10:54:57;;;;;;;7.85;2.08;;;;;;;23.60;56.70;100678.22;5029926;28;20044;-76
2022/06/08 10:57:38;;;;;;;8.25;3.25;;;;;;;23.07;57.56;100681.75;5031679;28;20056;-72
2022/06/08 11:00:19;;;;;;;8.27;3.28;;;;;;;23.50;56.45;100669.13;5029168;28;20063;-73
2022/06/08 11:03:02;;;;;;;14.30;3.78;;;;;;;23.81;57.06;100671.03;5030808;28;20037;-70
2022/06/08 11:05:44;;;;;;;5.30;3.25;;;;;;;23.59;56.53;100671.91;5026166;28;20033;-73
2022/06/08 11:08:10;;;;;;;10.82;3.88;;;;;;;23.94;56.31;100670.13;5032005;28;20401;-70
2022/06/08 11:10:44;;;;;;;9.57;4.72;;;;;;;24.32;55.76;100663.78;5032704;28;20025;-71
2022/06/08 11:13:19;;;;;;;12.27;4.15;;;;;;;24.64;54.17;100678.22;5031419;28;20102;-72
2022/06/08 11:15:50;;;;;;;7.07;3.80;;;;;;;24.70;54.75;100672.22;5031536;28;20079;-71
2022/06/08 11:18:38;;;;;;;9.77;4.03;;;;;;;24.33;55.71;100672.84;5031946;28;20048;-72
2022/06/08 11:21:15;;;;;;;5.68;3.42;;;;;;;23.98;55.37;100668.38;4970647;28;20051;-74
2022/06/08 11:23:59;;;;;;;8.48;3.38;;;;;;;24.98;53.68;100668.03;4967838;28;20130;-72
2022/06/08 11:26:28;;;;;;;9.70;3.60;;;;;;;25.01;53.08;100674.84;4968786;28;20046;-74
2022/06/08 11:29:21;;;;;;;17.17;4.40;;;;;;;24.66;54.05;100668.50;4954628;28;20031;-76
2022/06/08 11:31:51;;;;;;;6.20;4.13;;;;;;;24.81;53.89;100667.22;4969392;28;20479;-75
2022/06/08 11:34:19;;;;;;;;;;;;;;;24.98;53.15;100668.03;4965394;28;20042;-73
2022/06/08 11:36:53;;;;;;;12.85;5.38;;;;;;;24.69;54.68;100667.03;4962404;28;19933;-74
2022/06/08 11:39:25;;;;;;;12.68;4.80;;;;;;;24.93;53.80;100661.91;4963477;28;20126;-75
2022/06/08 11:42:14;;;;;;;7.85;5.28;;;;;;;24.30;55.39;100676.22;4966593;28;20799;-73
2022/06/08 11:44:43;;;;;;;11.10;5.03;;;;;;;24.61;55.71;100663.16;4965689;28;20046;-73
2022/06/08 11:47:11;;;;;;;13.60;6.60;;;;;;;24.81;55.29;100669.97;4952156;28;20127;-73